Time;durP1;ratioP1;P1;durP2;ratioP2;P2;SDS_P1;SDS_P2;PMS_P1;PMS_P2;Temp;Humidity;BMP_temperature;BMP_pressure;BME280_temperature;BME280_humidity;BME280_pressure;Samples;Min_cycle;Max_cycle;Signal;HPM_P1;HPM_P2
2021/12/13 00:02:09;;;;;;;30.45;24.27;;;;;;;9.01;100.00;102461.81;5069917;28;20107;-69
2021/12/13 00:04:55;;;;;;;35.00;26.08;;;;;;;9.01;100.00;102451.19;5073078;28;20079;-69
2021/12/13 00:07:24;;;;;;;30.08;24.00;;;;;;;8.98;100.00;102453.13;5068802;28;20103;-70
2021/12/13 00:09:53;;;;;;;31.45;25.60;;;;;;;9.00;100.00;102453.91;5049803;28;20044;-70
2021/12/13 00:12:22;;;;;;;30.70;24.33;;;;;;;8.99;100.00;102458.38;5054183;28;20051;-70
2021/12/13 00:14:50;;;;;;;;;;;;;;;9.05;100.00;102450.13;5063191;28;20028;-70
2021/12/13 00:17:27;;;;;;;30.90;23.60;;;;;;;8.98;100.00;102453.13;5060145;28;19960;-70
2021/12/13 00:19:59;;;;;;;29.45;22.58;;;;;;;8.96;100.00;102457.59;5052866;28;20108;-70
2021/12/13 00:22:34;;;;;;;29.27;22.48;;;;;;;8.95;100.00;102454.09;5053006;28;20057;-70
2021/12/13 00:25:13;;;;;;;28.42;23.88;;;;;;;8.95;100.00;102455.91;5052775;28;20044;-70
2021/12/13 00:27:42;;;;;;;28.73;21.70;;;;;;;8.92;100.00;102445.44;5046547;28;20434;-70
2021/12/13 00:30:27;;;;;;;27.08;21.13;;;;;;;8.92;100.00;102450.75;5052631;28;20033;-70
2021/12/13 00:33:19;;;;;;;26.63;21.30;;;;;;;8.91;100.00;102463.13;5051406;28;20587;-70
2021/12/13 00:35:52;;;;;;;27.83;21.88;;;;;;;8.87;100.00;102451.78;5041909;28;20364;-69
2021/12/13 00:38:23;;;;;;;29.70;21.55;;;;;;;8.87;100.00;102448.28;5052821;28;20415;-70
2021/12/13 00:41:01;;;;;;;28.52;21.20;;;;;;;8.86;100.00;102467.78;5052348;28;20033;-70
2021/12/13 00:43:33;;;;;;;28.15;22.10;;;;;;;8.84;100.00;102464.31;5050043;28;20041;-70
2021/12/13 00:46:03;;;;;;;26.80;21.45;;;;;;;8.83;100.00;102470.56;5052508;28;20028;-70
2021/12/13 00:48:33;;;;;;;29.02;21.42;;;;;;;8.82;100.00;102468.81;5052285;28;20017;-70
2021/12/13 00:51:10;;;;;;;29.05;22.50;;;;;;;8.85;100.00;102469.53;5045222;28;20056;-70
2021/12/13 00:53:41;;;;;;;29.63;22.58;;;;;;;8.81;100.00;102465.31;5048754;28;20115;-70
2021/12/13 00:56:47;;;;;;;32.92;22.70;;;;;;;8.83;100.00;102471.41;5050929;28;20116;-71
2021/12/13 00:59:28;;;;;;;31.75;23.13;;;;;;;8.81;100.00;102473.28;5033373;28;20132;-70
2021/12/13 01:02:05;;;;;;;31.80;22.95;;;;;;;8.78;100.00;102465.44;5046746;28;20029;-70
2021/12/13 01:04:51;;;;;;;32.58;23.67;;;;;;;8.80;100.00;102475.97;5052416;28;20112;-70
2021/12/13 01:07:38;;;;;;;31.02;22.95;;;;;;;8.77;100.00;102474.31;5050643;28;20647;-70
2021/12/13 01:10:47;;;;;;;30.40;23.08;;;;;;;8.76;100.00;102480.56;5051971;28;20510;-70
2021/12/13 01:13:21;;;;;;;31.55;23.60;;;;;;;8.76;100.00;102484.97;5053922;28;20017;-70
2021/12/13 01:15:55;;;;;;;31.98;23.80;;;;;;;8.75;100.00;102483.25;5041858;28;20095;-70
2021/12/13 01:18:33;;;;;;;34.38;23.92;;;;;;;8.74;100.00;102489.47;5072324;28;20028;-70
2021/12/13 01:21:37;;;;;;;34.10;23.13;;;;;;;8.76;100.00;102484.97;5071954;28;20025;-70
2021/12/13 01:24:11;;;;;;;32.30;23.33;;;;;;;8.72;100.00;102489.53;5062271;28;20059;-70
2021/12/13 01:26:41;;;;;;;31.77;23.33;;;;;;;8.69;100.00;102481.72;5051821;28;20074;-70
2021/12/13 01:29:11;;;;;;;32.78;23.85;;;;;;;8.69;100.00;102487.00;5052102;28;20017;-70
2021/12/13 01:31:41;;;;;;;35.33;23.73;;;;;;;8.70;100.00;102488.75;5051665;28;20040;-70
2021/12/13 01:34:09;;;;;;;33.55;22.83;;;;;;;8.66;100.00;102492.44;5038872;28;20455;-70
2021/12/13 01:36:47;;;;;;;32.05;23.63;;;;;;;8.69;100.00;102497.63;5031515;28;20060;-70
2021/12/13 01:39:18;;;;;;;36.87;25.47;;;;;;;8.68;100.00;102495.91;5031623;28;20488;-70
2021/12/13 01:41:48;;;;;;;37.45;24.30;;;;;;;8.63;100.00;102496.09;5031264;28;20055;-69
2021/12/13 01:44:22;;;;;;;33.80;24.08;;;;;;;8.65;100.00;102498.69;5031471;28;20185;-70
2021/12/13 01:46:53;;;;;;;37.63;24.75;;;;;;;8.63;100.00;102500.53;5031142;28;20682;-71
2021/12/13 01:49:20;;;;;;;34.90;24.75;;;;;;;8.63;100.00;102496.09;5031355;28;20053;-70
2021/12/13 01:51:47;;;;;;;37.38;26.23;;;;;;;8.62;100.00;102504.97;5048016;28;20068;-71
2021/12/13 01:54:22;;;;;;;37.38;25.17;;;;;;;8.62;100.00;102510.25;5051188;28;20029;-70
2021/12/13 01:57:10;;;;;;;35.47;24.90;;;;;;;8.61;100.00;102505.91;5051124;28;20467;-70
2021/12/13 02:02:20;;;;;;;39.50;25.73;;;;;;;8.59;100.00;102505.06;5031305;28;20034;-70
2021/12/13 02:04:59;;;;;;;37.65;25.52;;;;;;;8.59;100.00;102512.16;5043230;28;20119;-70
2021/12/13 02:07:26;;;;;;;;;;;;;;;8.64;100.00;102510.19;5051840;28;20021;-70
2021/12/13 02:09:52;;;;;;;37.25;26.27;;;;;;;8.57;100.00;102520.19;5049464;28;19974;-70
2021/12/13 02:12:19;;;;;;;36.03;25.98;;;;;;;8.55;100.00;102510.59;5051010;28;20028;-71
2021/12/13 02:16:56;;;;;;;38.20;27.55;;;;;;;8.54;100.00;102514.16;5070835;28;20037;-70
2021/12/13 02:17:38;;;;;;;34.35;26.13;;;;;;;8.54;100.00;102519.44;5068731;28;20036;-70
2021/12/13 02:20:18;;;;;;;39.65;27.80;;;;;;;8.54;100.00;102507.06;5070629;28;20040;-70
2021/12/13 02:22:46;;;;;;;39.67;27.63;;;;;;;8.51;100.00;102491.31;5045969;28;20037;-70
2021/12/13 02:25:38;;;;;;;38.83;27.00;;;;;;;8.50;100.00;102497.53;5064641;28;20029;-70
2021/12/13 02:28:22;;;;;;;40.60;28.05;;;;;;;8.49;100.00;102485.22;5033410;28;20519;-70
2021/12/13 02:30:59;;;;;;;37.47;27.15;;;;;;;8.50;100.00;102486.94;5063465;28;20031;-70
2021/12/13 02:33:30;;;;;;;37.30;26.20;;;;;;;8.49;100.00;102486.09;5065603;28;20051;-70
2021/12/13 02:36:03;;;;;;;36.55;27.17;;;;;;;8.48;100.00;102499.38;5068710;28;20442;-71
2021/12/13 02:38:29;;;;;;;42.75;27.80;;;;;;;8.47;100.00;102502.94;5070747;28;20035;-71
2021/12/13 02:40:55;;;;;;;41.15;27.52;;;;;;;8.48;100.00;102509.97;5068682;28;20494;-71
2021/12/13 02:43:38;;;;;;;38.30;27.90;;;;;;;8.48;100.00;102510.84;5054980;28;20387;-70
2021/12/13 02:46:03;;;;;;;36.20;26.48;;;;;;;8.46;100.00;102507.41;5070579;28;20024;-71
2021/12/13 02:48:39;;;;;;;40.13;27.33;;;;;;;8.47;100.00;102513.53;5066360;28;20386;-70
2021/12/13 02:51:23;;;;;;;36.58;25.88;;;;;;;8.47;100.00;102516.19;5070388;28;20037;-70
2021/12/13 02:53:56;;;;;;;41.25;27.13;;;;;;;8.45;100.00;102513.59;5044070;28;20025;-70
2021/12/13 02:56:26;;;;;;;37.88;26.63;;;;;;;8.44;100.00;102514.53;5070616;28;20098;-70
2021/12/13 02:58:53;;;;;;;39.08;28.17;;;;;;;8.43;100.00;102511.97;5060953;28;20021;-71
2021/12/13 03:01:46;;;;;;;40.08;27.02;;;;;;;8.44;100.00;102508.38;5070349;28;20394;-72
2021/12/13 03:04:16;;;;;;;40.97;27.13;;;;;;;8.41;100.00;102505.81;5056481;28;20098;-71
2021/12/13 03:06:51;;;;;;;40.30;28.42;;;;;;;8.41;100.00;102511.09;5059358;28;20024;-71
2021/12/13 03:09:21;;;;;;;42.00;27.90;;;;;;;8.39;100.00;102502.38;5042924;28;20097;-72
2021/12/13 03:11:51;;;;;;;38.55;28.25;;;;;;;8.38;100.00;102512.09;5063196;28;20036;-71
2021/12/13 03:14:27;;;;;;;39.80;27.88;;;;;;;8.37;100.00;102505.06;5070040;28;20024;-71
2021/12/13 03:17:15;;;;;;;38.72;28.63;;;;;;;8.36;100.00;102500.72;5069835;28;20138;-71
2021/12/13 03:19:41;;;;;;;37.83;26.63;;;;;;;8.36;100.00;102510.44;5046076;28;20062;-71
2021/12/13 03:22:35;;;;;;;37.87;27.13;;;;;;;8.36;100.00;102510.44;5070358;28;20063;-71
2021/12/13 03:25:17;;;;;;;38.50;26.90;;;;;;;8.32;100.00;102518.50;5051087;28;20384;-71
2021/12/13 03:28:20;;;;;;;39.35;26.27;;;;;;;8.34;100.00;102510.50;5056793;28;20033;-71
2021/12/13 03:30:56;;;;;;;38.97;27.15;;;;;;;8.32;100.00;102507.06;5046052;28;20077;-71
2021/12/13 03:33:32;;;;;;;41.15;27.92;;;;;;;8.31;100.00;102508.84;5043855;28;20025;-71
2021/12/13 03:36:04;;;;;;;39.20;27.00;;;;;;;8.30;100.00;102512.41;5054280;28;20483;-71
2021/12/13 03:38:40;;;;;;;39.22;27.58;;;;;;;8.30;100.00;102516.84;5070828;28;20107;-70
2021/12/13 03:41:10;;;;;;;41.78;27.17;;;;;;;8.28;100.00;102503.66;5052327;28;20534;-70
2021/12/13 03:43:44;;;;;;;41.65;27.42;;;;;;;8.29;100.00;102517.75;5051631;28;20481;-71
2021/12/13 03:46:14;;;;;;;39.55;27.60;;;;;;;8.28;100.00;102511.63;5052082;28;20033;-70
2021/12/13 03:48:47;;;;;;;38.40;28.38;;;;;;;8.27;100.00;102507.22;5070598;28;20142;-71
2021/12/13 03:51:16;;;;;;;40.67;27.08;;;;;;;8.27;100.00;102506.38;5055311;28;20055;-71
2021/12/13 03:53:44;;;;;;;;;;;;;;;8.34;100.00;102507.84;5065901;28;20418;-71
2021/12/13 03:56:12;;;;;;;38.95;26.80;;;;;;;8.26;100.00;102518.75;5064864;28;19927;-71
2021/12/13 03:58:43;;;;;;;36.72;26.13;;;;;;;8.25;100.00;102519.66;5043359;28;20037;-71
2021/12/13 04:01:14;;;;;;;37.92;26.55;;;;;;;8.24;100.00;102517.09;5054206;28;20075;-71
2021/12/13 04:03:41;;;;;;;39.35;26.65;;;;;;;8.24;100.00;102525.03;5071079;28;20528;-71
2021/12/13 04:06:07;;;;;;;36.65;26.13;;;;;;;8.23;100.00;102512.72;5055889;28;20029;-71
2021/12/13 04:08:33;;;;;;;40.15;28.10;;;;;;;8.22;100.00;102511.84;5066377;28;20391;-71
2021/12/13 04:11:03;;;;;;;44.53;27.08;;;;;;;8.21;100.00;102510.16;5064812;28;20043;-71
2021/12/13 04:13:37;;;;;;;39.25;26.88;;;;;;;8.21;100.00;102518.09;5045027;28;20467;-71
2021/12/13 04:16:34;;;;;;;41.22;27.20;;;;;;;8.21;100.00;102510.16;5047776;28;20032;-71
2021/12/13 04:19:07;;;;;;;40.47;26.65;;;;;;;8.20;100.00;102519.00;5050638;28;21125;-71
2021/12/13 04:21:40;;;;;;;36.83;25.80;;;;;;;8.19;100.00;102514.63;5058876;28;20471;-71
2021/12/13 04:24:09;;;;;;;42.92;27.15;;;;;;;8.20;100.00;102521.63;5073055;28;20012;-71
2021/12/13 04:26:48;;;;;;;38.28;25.88;;;;;;;8.20;100.00;102520.78;5066263;28;20036;-70
2021/12/13 04:29:21;;;;;;;35.92;25.50;;;;;;;8.20;100.00;102523.44;5072836;28;20035;-71
2021/12/13 04:31:49;;;;;;;38.13;25.98;;;;;;;8.19;100.00;102516.41;5072930;28;20487;-71
2021/12/13 04:34:14;;;;;;;38.72;26.20;;;;;;;8.18;100.00;102522.59;5059191;28;20048;-70
2021/12/13 04:36:47;;;;;;;39.10;24.50;;;;;;;8.18;100.00;102534.09;5072966;28;20025;-70
2021/12/13 04:39:14;;;;;;;36.13;25.15;;;;;;;8.17;100.00;102524.41;5058643;28;20031;-71
2021/12/13 04:41:46;;;;;;;36.75;25.60;;;;;;;8.17;100.00;102524.41;5056825;28;20029;-71
2021/12/13 04:44:17;;;;;;;36.60;25.27;;;;;;;8.15;100.00;102519.16;5066726;28;20029;-71
2021/12/13 04:46:48;;;;;;;36.13;24.73;;;;;;;8.14;100.00;102519.22;5045916;28;20037;-70
2021/12/13 04:49:18;;;;;;;35.97;24.38;;;;;;;8.14;100.00;102519.22;5068431;28;20032;-70
2021/12/13 04:52:05;;;;;;;34.70;24.33;;;;;;;8.18;100.00;102531.44;5062327;28;20482;-72
2021/12/13 04:54:34;;;;;;;36.83;24.15;;;;;;;8.14;100.00;102527.16;5064446;28;20489;-71
2021/12/13 04:57:00;;;;;;;35.55;24.90;;;;;;;8.13;100.00;102526.31;5070694;28;20103;-71
2021/12/13 04:59:28;;;;;;;32.60;23.52;;;;;;;8.12;100.00;102510.50;5058157;28;20105;-70
2021/12/13 05:01:58;;;;;;;33.42;22.67;;;;;;;8.12;100.00;102507.84;5071536;28;20457;-71
2021/12/13 05:04:26;;;;;;;33.22;23.20;;;;;;;8.12;100.00;102507.84;5052348;28;20032;-71
2021/12/13 05:06:53;;;;;;;33.50;22.58;;;;;;;8.11;100.00;102512.28;5053191;28;20440;-72
2021/12/13 05:09:22;;;;;;;32.95;22.75;;;;;;;8.10;100.00;102510.56;5039215;28;20431;-71
2021/12/13 05:12:14;;;;;;;35.67;23.27;;;;;;;8.12;100.00;102527.22;5032171;28;20467;-71
2021/12/13 05:14:51;;;;;;;30.60;22.48;;;;;;;8.11;100.00;102517.59;5032302;28;20034;-71
2021/12/13 05:17:16;;;;;;;32.35;22.55;;;;;;;8.10;100.00;102518.50;5031935;28;20391;-72
2021/12/13 05:19:47;;;;;;;31.07;22.77;;;;;;;8.10;100.00;102537.03;5043358;28;20029;-70
2021/12/13 05:22:14;;;;;;;35.33;22.40;;;;;;;8.10;100.00;102528.22;5051679;28;20275;-72
2021/12/13 05:25:00;;;;;;;30.80;21.25;;;;;;;8.09;100.00;102524.72;5060935;28;20107;-71
2021/12/13 05:27:37;;;;;;;30.40;21.48;;;;;;;8.10;100.00;102528.22;5055837;28;20024;-70
2021/12/13 05:30:11;;;;;;;32.22;21.63;;;;;;;8.09;100.00;102526.50;5071684;28;20040;-72
2021/12/13 05:32:44;;;;;;;33.53;21.67;;;;;;;8.06;100.00;102522.19;5068873;28;20056;-72
2021/12/13 05:35:23;;;;;;;32.40;21.95;;;;;;;8.10;100.00;102530.88;5041140;28;20048;-71
2021/12/13 05:37:54;;;;;;;29.85;20.38;;;;;;;8.07;100.00;102523.06;5057968;28;20059;-72
2021/12/13 05:40:24;;;;;;;31.92;21.15;;;;;;;8.07;100.00;102526.53;5061476;28;20044;-72
2021/12/13 05:42:57;;;;;;;30.48;20.50;;;;;;;8.07;100.00;102536.28;5068290;28;20103;-72
2021/12/13 05:45:36;;;;;;;31.20;19.95;;;;;;;8.08;100.00;102532.72;5053523;28;20032;-72
2021/12/13 05:48:12;;;;;;;30.88;20.05;;;;;;;8.07;100.00;102531.84;5066703;28;20582;-72
2021/12/13 05:50:40;;;;;;;29.80;19.83;;;;;;;8.06;100.00;102529.25;5053404;28;20104;-72
2021/12/13 05:53:18;;;;;;;27.67;19.37;;;;;;;8.06;100.00;102527.50;5071297;28;20035;-71
2021/12/13 05:56:07;;;;;;;29.52;19.65;;;;;;;8.07;100.00;102525.69;5042314;28;20420;-71
2021/12/13 05:58:43;;;;;;;28.90;19.43;;;;;;;8.04;100.00;102526.66;5071059;28;20052;-70
2021/12/13 06:01:30;;;;;;;28.88;19.67;;;;;;;8.06;100.00;102531.91;5066118;28;20067;-72
2021/12/13 06:04:12;;;;;;;28.27;19.10;;;;;;;8.06;100.00;102532.78;5044782;28;20491;-71
2021/12/13 06:06:53;;;;;;;27.50;18.63;;;;;;;8.05;100.00;102532.84;5046430;28;20116;-71
2021/12/13 06:09:38;;;;;;;26.83;18.48;;;;;;;8.06;100.00;102534.53;5048745;28;20176;-71
2021/12/13 06:12:07;;;;;;;25.95;19.25;;;;;;;8.03;100.00;102537.34;5059667;28;20506;-71
2021/12/13 06:14:33;;;;;;;27.48;18.95;;;;;;;8.02;100.00;102536.44;5066203;28;20028;-71
2021/12/13 06:17:03;;;;;;;27.02;18.52;;;;;;;8.02;100.00;102540.88;5071244;28;20032;-72
2021/12/13 06:19:37;;;;;;;25.95;18.60;;;;;;;8.02;100.00;102535.59;5045370;28;20187;-72
2021/12/13 06:22:23;;;;;;;24.20;17.67;;;;;;;8.03;100.00;102540.84;5064200;28;20386;-72
2021/12/13 06:24:59;;;;;;;24.77;18.08;;;;;;;8.02;100.00;102543.53;5049156;28;20052;-72
2021/12/13 06:27:28;;;;;;;25.70;17.55;;;;;;;8.00;100.00;102551.53;5058033;28;20055;-72
2021/12/13 06:30:11;;;;;;;26.58;17.40;;;;;;;8.01;100.00;102550.63;5051187;28;20073;-71
2021/12/13 06:32:47;;;;;;;24.02;17.98;;;;;;;8.00;100.00;102553.31;5047427;28;20077;-72
2021/12/13 06:35:34;;;;;;;26.45;17.92;;;;;;;8.01;100.00;102555.03;5055073;28;20379;-72
2021/12/13 06:38:19;;;;;;;22.75;16.95;;;;;;;8.00;100.00;102559.47;5064258;28;20045;-70
2021/12/13 06:40:53;;;;;;;27.77;17.60;;;;;;;7.96;100.00;102553.44;5030728;28;20026;-71
2021/12/13 06:43:38;;;;;;;29.02;17.58;;;;;;;7.99;100.00;102559.53;5030646;28;20034;-71
2021/12/13 06:46:08;;;;;;;23.35;17.63;;;;;;;7.96;100.00;102556.09;5030776;28;20033;-70
2021/12/13 06:48:42;;;;;;;25.45;17.13;;;;;;;7.95;100.00;102564.94;5030140;28;20039;-70
2021/12/13 06:51:10;;;;;;;23.65;16.80;;;;;;;7.94;100.00;102563.22;5036492;28;20356;-71
2021/12/13 06:53:36;;;;;;;28.17;21.40;;;;;;;7.94;100.00;102562.34;5048291;28;20025;-71
2021/12/13 06:56:20;;;;;;;22.67;16.20;;;;;;;7.96;100.00;102560.53;5051608;28;20036;-72
2021/12/13 06:58:52;;;;;;;20.58;15.45;;;;;;;7.92;100.00;102566.84;5052072;28;20024;-71
2021/12/13 07:01:18;;;;;;;22.67;16.23;;;;;;;7.93;100.00;102577.38;5040760;28;20026;-72
2021/12/13 07:04:01;;;;;;;25.95;15.77;;;;;;;7.93;100.00;102566.78;5057563;28;20029;-69
2021/12/13 07:06:27;;;;;;;22.80;15.73;;;;;;;7.93;100.00;102574.72;5049627;28;20490;-72
2021/12/13 07:09:21;;;;;;;25.92;16.48;;;;;;;7.94;100.00;102576.44;5042846;28;20057;-72
2021/12/13 07:11:57;;;;;;;24.48;15.95;;;;;;;7.91;100.00;102576.56;5034661;28;20099;-72
2021/12/13 07:14:38;;;;;;;26.10;16.05;;;;;;;7.90;100.00;102577.47;5041906;28;20061;-72
2021/12/13 07:17:27;;;;;;;24.45;15.43;;;;;;;7.89;100.00;102575.78;5038954;28;20109;-72
2021/12/13 07:19:54;;;;;;;22.30;14.73;;;;;;;7.89;100.00;102572.25;5039686;28;20559;-71
2021/12/13 07:22:23;;;;;;;22.02;15.52;;;;;;;7.88;100.00;102587.25;5046526;28;20410;-72
2021/12/13 07:25:00;;;;;;;21.45;15.95;;;;;;;7.87;100.00;102582.03;5055967;28;20028;-71
2021/12/13 07:27:33;;;;;;;22.35;14.77;;;;;;;7.89;100.00;102589.00;5046577;28;20041;-72
2021/12/13 07:30:14;;;;;;;22.98;16.08;;;;;;;7.88;100.00;102589.91;5050079;28;20045;-72
2021/12/13 07:32:58;;;;;;;23.80;14.65;;;;;;;7.89;100.00;102589.00;5050619;28;20025;-72
2021/12/13 07:35:30;;;;;;;21.98;14.80;;;;;;;7.89;100.00;102588.09;5061146;28;20135;-71
2021/12/13 07:38:26;;;;;;;22.52;15.30;;;;;;;7.92;100.00;102602.09;5061503;28;20083;-71
2021/12/13 07:40:55;;;;;;;25.77;15.60;;;;;;;7.87;100.00;102588.16;5050420;28;20037;-72
2021/12/13 07:43:37;;;;;;;22.98;15.25;;;;;;;7.88;100.00;102597.00;5031838;28;20380;-70
2021/12/13 07:46:18;;;;;;;22.70;15.00;;;;;;;7.89;100.00;102596.94;5035938;28;20028;-71
2021/12/13 07:48:43;;;;;;;22.73;15.27;;;;;;;7.88;100.00;102597.84;5046183;28;20392;-72
2021/12/13 07:51:20;;;;;;;20.43;14.70;;;;;;;7.89;100.00;102589.00;5051409;28;20029;-73
2021/12/13 07:53:50;;;;;;;23.23;15.07;;;;;;;7.89;100.00;102598.69;5051683;28;20055;-72
2021/12/13 07:56:41;;;;;;;22.48;15.55;;;;;;;7.89;100.00;102607.50;5065072;28;20029;-72
2021/12/13 07:59:14;;;;;;;23.00;14.27;;;;;;;7.89;100.00;102606.63;5041413;28;20412;-72
2021/12/13 08:01:56;;;;;;;23.13;15.57;;;;;;;7.88;100.00;102611.06;5042127;28;20162;-72
2021/12/13 08:04:33;;;;;;;21.40;14.70;;;;;;;7.90;100.00;102613.66;5039267;28;20053;-70
2021/12/13 08:07:08;;;;;;;21.67;14.63;;;;;;;7.90;100.00;102609.22;5047601;28;20029;-72
2021/12/13 08:09:42;;;;;;;22.23;15.02;;;;;;;7.87;100.00;102604.03;5046993;28;20045;-72
2021/12/13 08:12:22;;;;;;;22.35;15.05;;;;;;;7.89;100.00;102602.22;5051173;28;20471;-71
2021/12/13 08:14:51;;;;;;;21.88;15.55;;;;;;;7.89;100.00;102610.16;5058538;28;20392;-72
2021/12/13 08:17:20;;;;;;;21.27;15.57;;;;;;;7.89;100.00;102606.63;5073214;28;20024;-73
2021/12/13 08:20:04;;;;;;;;;;;;;;;7.96;100.00;102611.66;5072960;28;20024;-72
2021/12/13 08:22:31;;;;;;;20.20;13.57;;;;;;;7.92;100.00;102615.31;5046890;28;19916;-70
2021/12/13 08:25:14;;;;;;;18.85;14.18;;;;;;;7.93;100.00;102610.91;5066233;28;20056;-70
2021/12/13 08:27:47;;;;;;;20.67;14.63;;;;;;;7.90;100.00;102611.00;5047184;28;20035;-70
2021/12/13 08:30:23;;;;;;;21.15;14.88;;;;;;;7.93;100.00;102608.25;5072540;28;20508;-73
2021/12/13 08:33:11;;;;;;;18.73;13.23;;;;;;;7.92;100.00;102610.03;5049616;28;20145;-73
2021/12/13 08:35:57;;;;;;;19.27;13.75;;;;;;;7.93;100.00;102614.41;5055641;28;20478;-71
2021/12/13 08:38:58;;;;;;;19.48;13.93;;;;;;;7.92;100.00;102612.66;5064034;28;20074;-71
2021/12/13 08:41:31;;;;;;;18.70;13.27;;;;;;;7.92;100.00;102612.66;5048972;28;20338;-71
2021/12/13 08:44:13;;;;;;;19.38;13.77;;;;;;;7.90;100.00;102617.16;5071440;28;20025;-72
2021/12/13 08:46:46;;;;;;;20.33;14.38;;;;;;;7.93;100.00;102613.56;5051452;28;20395;-72
2021/12/13 08:49:30;;;;;;;18.00;14.02;;;;;;;7.93;100.00;102611.75;5055821;28;20041;-72
2021/12/13 08:51:56;;;;;;;17.65;13.70;;;;;;;7.93;100.00;102610.91;5039224;28;20057;-72
2021/12/13 08:54:34;;;;;;;19.73;13.87;;;;;;;7.95;100.00;102614.34;5046769;28;20387;-72
2021/12/13 08:57:01;;;;;;;18.67;13.20;;;;;;;7.94;100.00;102618.78;5044244;28;20366;-72
2021/12/13 08:59:27;;;;;;;18.65;14.13;;;;;;;7.94;100.00;102618.78;5036182;28;20028;-72
2021/12/13 09:01:58;;;;;;;21.15;13.95;;;;;;;7.94;100.00;102617.91;5041105;28;20483;-74
2021/12/13 09:04:31;;;;;;;16.95;14.00;;;;;;;7.95;100.00;102617.84;5039157;28;20037;-72
2021/12/13 09:07:00;;;;;;;18.33;14.20;;;;;;;7.96;100.00;102624.88;5035014;28;20067;-72
2021/12/13 09:09:26;;;;;;;19.57;14.37;;;;;;;7.97;100.00;102618.66;5038783;28;20511;-71
2021/12/13 09:12:00;;;;;;;18.35;13.90;;;;;;;7.97;100.00;102623.09;5038477;28;20359;-72
2021/12/13 09:14:41;;;;;;;21.20;14.70;;;;;;;7.99;100.00;102625.69;5042780;28;20505;-71
2021/12/13 09:17:26;;;;;;;23.17;14.55;;;;;;;8.00;100.00;102630.91;5039916;28;20083;-71
2021/12/13 09:20:21;;;;;;;19.67;14.00;;;;;;;7.97;100.00;102623.94;5035562;28;20025;-72
2021/12/13 09:22:57;;;;;;;21.33;15.23;;;;;;;7.97;100.00;102631.88;5049330;28;20487;-72
2021/12/13 09:25:33;;;;;;;22.63;15.02;;;;;;;7.97;100.00;102626.59;5035456;28;21143;-72
2021/12/13 09:28:04;;;;;;;26.67;15.23;;;;;;;7.99;100.00;102633.63;5042620;28;20032;-73
2021/12/13 09:30:56;;;;;;;21.60;15.30;;;;;;;8.00;100.00;102638.00;5068554;28;20125;-72
2021/12/13 09:33:28;;;;;;;23.73;15.07;;;;;;;8.00;100.00;102643.28;5054876;28;20029;-72
2021/12/13 09:36:17;;;;;;;20.27;14.85;;;;;;;8.01;100.00;102645.88;5038705;28;20032;-71
2021/12/13 09:38:42;;;;;;;;;;;;;;;8.06;100.00;102650.97;5062315;28;20032;-73
2021/12/13 09:41:27;;;;;;;20.90;14.43;;;;;;;8.04;100.00;102658.97;5055351;28;20337;-73
2021/12/13 09:44:19;;;;;;;17.60;13.40;;;;;;;8.04;99.86;102666.91;5063197;28;20036;-72
2021/12/13 09:47:06;;;;;;;18.27;14.05;;;;;;;8.03;99.63;102672.28;5047104;28;20079;-70
2021/12/13 09:49:59;;;;;;;20.20;14.30;;;;;;;8.05;99.70;102678.38;5061840;28;20053;-72
2021/12/13 09:52:39;;;;;;;17.65;13.88;;;;;;;8.05;99.50;102681.88;5045059;28;20112;-72
2021/12/13 09:55:10;;;;;;;17.42;13.77;;;;;;;8.05;99.53;102694.25;5049691;28;20032;-72
2021/12/13 09:58:03;;;;;;;18.08;13.88;;;;;;;8.04;99.59;102687.22;5055666;28;20032;-72
2021/12/13 10:00:40;;;;;;;16.48;13.75;;;;;;;8.05;99.52;102686.31;5072336;28;20043;-72
2021/12/13 10:03:13;;;;;;;17.55;13.93;;;;;;;8.08;99.31;102702.09;5072310;28;20394;-72
2021/12/13 10:05:42;;;;;;;18.33;13.82;;;;;;;8.06;99.47;102695.97;5053429;28;20030;-71
2021/12/13 10:08:23;;;;;;;15.85;12.52;;;;;;;8.09;99.34;102693.22;5062005;28;20029;-72
2021/12/13 10:10:56;;;;;;;18.95;13.93;;;;;;;8.08;99.25;102697.66;5057567;28;20131;-72
2021/12/13 10:13:26;;;;;;;17.23;12.63;;;;;;;8.08;99.27;102688.88;5070018;28;20044;-71
2021/12/13 10:16:08;;;;;;;14.43;11.95;;;;;;;8.09;99.09;102687.94;5069808;28;20043;-72
2021/12/13 10:18:37;;;;;;;15.52;12.50;;;;;;;8.08;99.10;102689.72;5063991;28;20040;-72
2021/12/13 10:21:09;;;;;;;13.57;11.65;;;;;;;8.09;99.03;102679.97;5061330;28;20112;-72
2021/12/13 10:23:38;;;;;;;14.25;11.43;;;;;;;8.09;98.94;102680.88;5040113;28;20045;-72
2021/12/13 10:26:07;;;;;;;12.45;10.82;;;;;;;8.10;98.87;102679.94;5052133;28;20446;-72
2021/12/13 10:28:35;;;;;;;;;;;;;;;8.17;99.36;102685.88;5045055;28;20107;-73
2021/12/13 10:31:08;;;;;;;14.88;10.57;;;;;;;8.13;98.89;102678.97;5049623;28;19936;-72
2021/12/13 10:33:38;;;;;;;13.40;11.05;;;;;;;8.11;98.60;102683.44;5032554;28;20047;-73
2021/12/13 10:36:07;;;;;;;13.98;10.25;;;;;;;8.13;98.65;102684.25;5040290;28;20037;-72
2021/12/13 10:38:37;;;;;;;14.98;11.40;;;;;;;8.13;98.71;102679.81;5048859;28;20044;-72
2021/12/13 10:41:08;;;;;;;11.73;10.02;;;;;;;8.13;98.37;102677.19;5050271;28;20116;-72
2021/12/13 10:43:43;;;;;;;12.30;9.85;;;;;;;8.14;98.47;102675.38;5053800;28;21258;-72
2021/12/13 10:46:16;;;;;;;13.13;10.18;;;;;;;8.13;98.21;102673.69;5031719;28;20398;-72
2021/12/13 10:48:50;;;;;;;14.55;10.48;;;;;;;8.14;98.14;102663.03;5058843;28;20083;-71
2021/12/13 10:51:20;;;;;;;14.20;10.25;;;;;;;8.12;98.07;102664.00;5043739;28;20383;-72
2021/12/13 10:53:47;;;;;;;11.80;9.80;;;;;;;8.14;98.02;102663.03;5038944;28;20106;-72
2021/12/13 10:56:20;;;;;;;10.85;9.75;;;;;;;8.15;97.83;102667.38;5061232;28;20054;-72
2021/12/13 10:58:49;;;;;;;12.88;9.30;;;;;;;8.16;98.26;102673.56;5046756;28;20487;-73
2021/12/13 11:01:23;;;;;;;;;;;;;;;8.24;98.49;102678.56;5044741;28;20013;-72
2021/12/13 11:03:51;;;;;;;11.13;8.98;;;;;;;8.18;97.92;102671.72;5056074;28;19917;-73
2021/12/13 11:06:18;;;;;;;13.90;9.32;;;;;;;8.20;97.87;102675.16;5055632;28;20021;-73
2021/12/13 11:08:44;;;;;;;13.93;9.27;;;;;;;8.20;97.63;102667.22;5059662;28;20533;-72
2021/12/13 11:11:20;;;;;;;13.57;9.15;;;;;;;8.22;97.49;102667.16;5058666;28;20028;-72
2021/12/13 11:13:49;;;;;;;11.43;8.75;;;;;;;8.22;97.31;102662.72;5037994;28;20034;-72
2021/12/13 11:16:19;;;;;;;11.15;9.00;;;;;;;8.22;97.19;102651.28;5035329;28;20029;-72
2021/12/13 11:18:45;;;;;;;10.82;9.40;;;;;;;8.22;97.15;102653.94;5033806;28;20028;-71
2021/12/13 11:21:21;;;;;;;10.82;8.85;;;;;;;8.21;97.16;102645.13;5045431;28;20037;-72
2021/12/13 11:23:47;;;;;;;9.50;8.35;;;;;;;8.24;97.13;102652.09;5061329;28;20119;-72
2021/12/13 11:26:18;;;;;;;10.93;8.63;;;;;;;8.25;97.19;102649.38;5043058;28;20105;-72
2021/12/13 11:28:44;;;;;;;12.45;8.65;;;;;;;8.23;96.71;102648.59;5058564;28;20029;-72
2021/12/13 11:31:31;;;;;;;9.73;8.73;;;;;;;8.27;96.90;102652.81;5056319;28;20033;-72
2021/12/13 11:34:03;;;;;;;13.45;9.27;;;;;;;8.26;96.78;102658.19;5054228;28;20048;-73
2021/12/13 11:36:57;;;;;;;10.10;8.90;;;;;;;8.29;96.93;102653.66;5050248;28;20067;-73
2021/12/13 11:39:48;;;;;;;8.85;7.95;;;;;;;8.30;96.69;102649.22;5053399;28;20498;-73
2021/12/13 11:42:44;;;;;;;9.18;8.02;;;;;;;8.31;96.76;102650.91;5063745;28;20355;-73
2021/12/13 11:45:35;;;;;;;11.88;8.15;;;;;;;8.31;96.49;102654.44;5050239;28;20596;-73
2021/12/13 11:48:26;;;;;;;9.43;7.65;;;;;;;8.31;96.06;102649.16;5065528;28;20029;-73
2021/12/13 11:50:55;;;;;;;9.38;7.53;;;;;;;8.31;95.78;102654.44;5051279;28;20040;-72
2021/12/13 11:53:33;;;;;;;8.77;7.88;;;;;;;8.31;95.78;102651.81;5033666;28;20569;-72
2021/12/13 11:56:26;;;;;;;9.60;8.25;;;;;;;8.34;95.86;102656.09;5051023;28;20043;-72